createdAt,value
2018-05-27T00:00:48.342Z,16.60
2018-05-27T00:03:16.601Z,16.60
2018-05-27T00:05:44.103Z,16.60
2018-05-27T00:08:11.577Z,16.60
2018-05-27T00:10:39.070Z,16.60
2018-05-27T00:13:06.543Z,16.50
2018-05-27T00:15:34.057Z,16.50
2018-05-27T00:18:01.534Z,16.50
2018-05-27T00:20:29.062Z,16.60
2018-05-27T00:22:56.528Z,16.60
2018-05-27T00:25:24.010Z,16.50
2018-05-27T00:27:51.532Z,16.60
2018-05-27T00:30:19.016Z,16.60
2018-05-27T00:32:46.528Z,16.50
2018-05-27T00:35:14.783Z,16.50
2018-05-27T00:37:42.279Z,16.50
2018-05-27T00:40:09.862Z,16.50
2018-05-27T00:42:37.371Z,16.50
2018-05-27T00:45:04.852Z,16.60
2018-05-27T00:47:33.126Z,16.50
2018-05-27T00:50:01.377Z,16.50
2018-05-27T00:52:28.887Z,16.50
2018-05-27T00:54:58.091Z,16.50
2018-05-27T00:57:25.597Z,16.50
2018-05-27T00:59:53.082Z,16.50
2018-05-27T01:02:21.367Z,16.40
2018-05-27T01:04:48.838Z,16.40
2018-05-27T01:07:16.320Z,16.40
2018-05-27T01:09:43.834Z,16.30
2018-05-27T01:12:12.081Z,16.30
2018-05-27T01:14:39.599Z,16.30
2018-05-27T01:17:07.078Z,16.20
2018-05-27T01:19:34.592Z,16.30
2018-05-27T01:22:02.835Z,16.40
2018-05-27T01:24:30.347Z,16.30
2018-05-27T01:26:57.961Z,16.30
2018-05-27T01:29:25.469Z,16.30
2018-05-27T01:31:52.972Z,16.20
2018-05-27T01:34:20.449Z,16.20
2018-05-27T01:36:48.711Z,16.10
2018-05-27T01:39:16.183Z,16.00
2018-05-27T01:41:44.503Z,16.10
2018-05-27T01:44:11.971Z,16.00
2018-05-27T01:46:39.460Z,16.00
2018-05-27T01:49:06.935Z,16.00
2018-05-27T01:51:35.202Z,16.00
2018-05-27T01:54:02.687Z,16.00
2018-05-27T01:56:30.959Z,15.90
2018-05-27T01:58:59.195Z,15.90
2018-05-27T02:01:26.730Z,15.90
2018-05-27T02:03:54.203Z,16.00
2018-05-27T02:06:21.695Z,15.90
2018-05-27T02:08:49.171Z,15.90
2018-05-27T02:11:17.467Z,15.70
2018-05-27T02:13:44.952Z,15.70
2018-05-27T02:16:12.436Z,15.80
2018-05-27T02:18:39.951Z,15.70
2018-05-27T02:21:07.422Z,15.70
2018-05-27T02:23:34.927Z,15.80
2018-05-27T02:26:03.167Z,15.80
2018-05-27T02:28:30.663Z,15.80
2018-05-27T02:30:58.144Z,15.80
2018-05-27T02:33:26.412Z,15.80
2018-05-27T02:35:54.663Z,15.80
2018-05-27T02:38:22.173Z,15.80
2018-05-27T02:40:49.646Z,15.90
2018-05-27T02:43:17.152Z,15.90
2018-05-27T02:45:44.620Z,15.90
2018-05-27T02:48:12.883Z,15.90
2018-05-27T02:50:40.356Z,15.90
2018-05-27T02:53:08.642Z,15.90
2018-05-27T02:55:36.881Z,15.90
2018-05-27T02:58:04.352Z,15.90
2018-05-27T03:00:31.854Z,15.90
2018-05-27T03:02:59.427Z,15.90
2018-05-27T03:05:26.927Z,15.90
2018-05-27T03:07:54.395Z,15.90
2018-05-27T03:10:22.675Z,15.90
2018-05-27T03:12:50.181Z,15.90
2018-05-27T03:15:17.687Z,16.00
2018-05-27T03:17:45.168Z,16.00
2018-05-27T03:20:13.456Z,15.90
2018-05-27T03:22:40.943Z,15.80
2018-05-27T03:25:08.420Z,15.80
2018-05-27T03:27:35.922Z,15.70
2018-05-27T03:30:04.231Z,15.70
2018-05-27T03:32:31.728Z,15.70
2018-05-27T03:34:59.203Z,15.70
2018-05-27T03:37:26.702Z,15.70
2018-05-27T03:39:54.186Z,15.70
2018-05-27T03:42:21.681Z,15.70
2018-05-27T03:44:49.938Z,15.60
2018-05-27T03:47:17.447Z,15.60
2018-05-27T03:49:44.915Z,15.60
2018-05-27T03:52:12.418Z,15.60
2018-05-27T03:54:39.900Z,15.70
2018-05-27T03:57:08.173Z,15.60
2018-05-27T03:59:36.408Z,15.60
2018-05-27T04:02:03.913Z,15.60
2018-05-27T04:04:52.891Z,15.80
2018-05-27T04:07:44.117Z,15.70
2018-05-27T04:10:11.593Z,15.70
2018-05-27T04:12:40.062Z,15.70
2018-05-27T04:15:07.543Z,15.60
2018-05-27T04:17:35.038Z,15.60
2018-05-27T04:20:03.356Z,15.80
2018-05-27T04:22:30.833Z,15.80
2018-05-27T04:24:58.332Z,15.80
2018-05-27T04:27:26.600Z,15.90
2018-05-27T04:29:54.846Z,15.90
2018-05-27T04:32:22.348Z,15.90
2018-05-27T04:34:50.617Z,15.90
2018-05-27T04:37:18.094Z,15.90
2018-05-27T04:39:46.352Z,16.10
2018-05-27T04:42:13.852Z,16.10
2018-05-27T04:44:41.333Z,16.20
2018-05-27T04:47:08.839Z,16.30
2018-05-27T04:49:37.090Z,16.30
2018-05-27T04:52:04.608Z,16.30
2018-05-27T04:54:32.088Z,16.40
2018-05-27T04:56:59.596Z,16.40
2018-05-27T04:59:27.860Z,16.70
2018-05-27T05:01:56.131Z,16.80
2018-05-27T05:04:23.616Z,16.70
2018-05-27T05:06:51.874Z,16.90
2018-05-27T05:09:20.140Z,16.90
2018-05-27T05:11:47.661Z,16.90
2018-05-27T05:14:15.213Z,16.90
2018-05-27T05:16:42.720Z,16.90
2018-05-27T05:19:10.209Z,17.00
2018-05-27T05:21:37.691Z,17.20
2018-05-27T05:24:05.198Z,17.10
2018-05-27T05:26:32.691Z,17.00
2018-05-27T05:29:00.212Z,16.90
2018-05-27T05:31:27.691Z,17.20
2018-05-27T05:33:55.962Z,17.30
2018-05-27T05:36:24.260Z,17.20
2018-05-27T05:38:51.732Z,17.20
2018-05-27T05:41:19.223Z,17.30
2018-05-27T05:43:46.790Z,17.40
2018-05-27T05:46:14.971Z,17.70
2018-05-27T05:48:42.502Z,17.70
2018-05-27T05:51:10.007Z,17.80
2018-05-27T05:53:37.496Z,18.00
2018-05-27T05:56:05.005Z,18.20
2018-05-27T05:58:34.000Z,18.40
2018-05-27T06:01:01.497Z,18.40
2018-05-27T06:03:29.735Z,18.90
2018-05-27T06:05:57.246Z,18.90
2018-05-27T06:08:24.727Z,19.10
2018-05-27T06:10:52.248Z,19.00
2018-05-27T06:13:20.530Z,19.40
2018-05-27T06:15:48.803Z,19.50
2018-05-27T06:18:17.064Z,19.60
2018-05-27T06:20:44.583Z,19.60
2018-05-27T06:23:12.061Z,19.80
2018-05-27T06:25:39.545Z,19.90
2018-05-27T06:28:10.847Z,19.90
2018-05-27T06:30:38.338Z,19.80
2018-05-27T06:33:05.815Z,19.60
2018-05-27T06:35:34.062Z,20.00
2018-05-27T06:38:01.564Z,20.00
2018-05-27T06:40:29.818Z,20.60
2018-05-27T06:42:57.323Z,20.60
2018-05-27T06:45:24.802Z,21.00
2018-05-27T06:47:52.312Z,21.30
2018-05-27T06:50:20.556Z,22.70
2018-05-27T06:52:48.052Z,22.70
2018-05-27T06:55:16.308Z,23.70
2018-05-27T06:57:43.807Z,23.60
2018-05-27T07:00:11.341Z,24.10
2018-05-27T07:02:39.647Z,25.60
2018-05-27T07:05:07.121Z,25.50
2018-05-27T07:07:34.607Z,25.90
2018-05-27T07:10:02.095Z,25.80
2018-05-27T07:12:30.355Z,25.50
2018-05-27T07:14:57.857Z,25.50
2018-05-27T07:17:25.339Z,26.20
2018-05-27T07:19:52.874Z,26.40
2018-05-27T07:22:20.384Z,27.50
2018-05-27T07:24:47.885Z,27.20
2018-05-27T07:27:15.359Z,26.50
2018-05-27T07:29:42.871Z,26.30
2018-05-27T07:32:11.158Z,27.30
2018-05-27T07:34:38.673Z,27.30
2018-05-27T07:37:06.168Z,28.00
2018-05-27T07:39:33.657Z,28.00
2018-05-27T07:42:01.138Z,29.10
2018-05-27T07:44:28.643Z,29.20
2018-05-27T07:46:56.117Z,29.30
2018-05-27T07:49:24.436Z,29.10
2018-05-27T07:51:51.941Z,29.10
2018-05-27T07:54:19.428Z,28.70
2018-05-27T07:56:46.933Z,27.70
2018-05-27T07:59:14.417Z,27.90
2018-05-27T08:01:41.906Z,28.40
2018-05-27T08:04:09.396Z,29.30
2018-05-27T08:06:36.913Z,30.50
2018-05-27T08:09:05.971Z,29.40
2018-05-27T08:11:33.510Z,29.40
2018-05-27T08:14:01.014Z,29.10
2018-05-27T08:16:29.256Z,28.50
2018-05-27T08:18:56.762Z,28.50
2018-05-27T08:21:25.030Z,28.50
2018-05-27T08:23:53.313Z,28.50
2018-05-27T08:26:21.549Z,28.10
2018-05-27T08:28:49.072Z,28.10
2018-05-27T08:31:16.556Z,28.80
2018-05-27T08:33:44.056Z,29.00
2018-05-27T08:36:12.295Z,29.60
2018-05-27T08:38:39.811Z,29.50
2018-05-27T08:41:07.316Z,30.10
2018-05-27T08:43:34.833Z,30.40
2018-05-27T08:46:02.322Z,31.70
2018-05-27T08:48:29.799Z,31.20
2018-05-27T08:50:57.300Z,30.20
2018-05-27T08:53:25.597Z,30.80
2018-05-27T08:55:53.080Z,30.70
2018-05-27T08:58:20.604Z,29.80
2018-05-27T09:00:48.107Z,29.30
2018-05-27T09:03:15.615Z,30.50
2018-05-27T09:05:43.919Z,28.10
2018-05-27T09:08:11.451Z,28.00
2018-05-27T09:10:39.733Z,29.10
2018-05-27T09:13:07.971Z,29.40
2018-05-27T09:15:35.470Z,29.30
2018-05-27T09:18:03.717Z,30.00
2018-05-27T09:20:31.240Z,30.00
2018-05-27T09:22:58.721Z,29.40
2018-05-27T09:25:26.206Z,28.40
2018-05-27T09:27:54.476Z,28.30
2018-05-27T09:30:21.993Z,28.40
2018-05-27T09:32:49.517Z,27.50
2018-05-27T09:35:17.020Z,27.50
2018-05-27T09:37:44.507Z,28.10
2018-05-27T09:40:12.041Z,28.20
2018-05-27T09:42:39.511Z,29.00
2018-05-27T09:45:07.009Z,30.40
2018-05-27T09:47:36.007Z,30.90
2018-05-27T09:50:04.241Z,30.80
2018-05-27T09:52:31.752Z,30.80
2018-05-27T09:54:59.248Z,31.70
2018-05-27T09:57:26.768Z,32.00
2018-05-27T09:59:54.303Z,32.00
2018-05-27T10:02:22.542Z,34.60
2018-05-27T10:04:50.040Z,34.40
2018-05-27T10:07:18.293Z,34.70
2018-05-27T10:09:45.805Z,34.70
2018-05-27T10:12:13.305Z,35.10
2018-05-27T10:14:40.803Z,35.40
2018-05-27T10:17:09.080Z,36.70
2018-05-27T10:19:37.364Z,36.40
2018-05-27T10:22:04.856Z,36.40
2018-05-27T10:24:32.443Z,34.50
2018-05-27T10:26:59.965Z,32.90
2018-05-27T10:29:27.491Z,31.60
2018-05-27T10:31:55.740Z,30.80
2018-05-27T10:34:23.249Z,30.70
2018-05-27T10:36:50.720Z,30.40
2018-05-27T10:39:18.945Z,29.50
2018-05-27T10:41:46.451Z,30.20
2018-05-27T10:44:14.012Z,31.60
2018-05-27T10:46:41.497Z,34.20
2018-05-27T10:49:08.984Z,34.00
2018-05-27T10:51:36.475Z,34.80
2018-05-27T10:54:03.956Z,34.80
2018-05-27T10:56:31.594Z,35.10
2018-05-27T10:58:59.187Z,34.90
2018-05-27T11:01:26.787Z,35.30
2018-05-27T11:06:28.367Z,32.60
2018-05-27T11:08:56.631Z,32.70
2018-05-27T11:11:24.100Z,32.60
2018-05-27T11:13:52.447Z,30.40
2018-05-27T11:16:19.938Z,30.30
2018-05-27T11:18:48.316Z,29.40
2018-05-27T11:21:15.793Z,29.40
2018-05-27T11:23:44.061Z,29.00
2018-05-27T11:26:12.294Z,29.60
2018-05-27T11:28:39.836Z,29.60
2018-05-27T11:31:07.426Z,30.00
2018-05-27T11:33:34.927Z,30.70
2018-05-27T11:36:02.428Z,30.70
2018-05-27T11:38:29.929Z,30.90
2018-05-27T11:40:58.173Z,30.00
2018-05-27T11:43:25.677Z,30.00
2018-05-27T11:45:53.965Z,28.80
2018-05-27T11:48:21.460Z,28.70
2018-05-27T11:50:49.043Z,28.80
2018-05-27T11:53:16.545Z,28.20
2018-05-27T11:55:44.084Z,27.90
2018-05-27T11:58:12.339Z,28.60
2018-05-27T12:00:39.842Z,28.50
2018-05-27T12:03:07.325Z,29.10
2018-05-27T12:05:34.928Z,29.70
2018-05-27T12:08:02.424Z,30.30
2018-05-27T12:10:29.936Z,30.60
2018-05-27T12:12:57.479Z,30.70
2018-05-27T12:15:24.980Z,30.60
2018-05-27T12:17:53.253Z,30.00
2018-05-27T12:20:21.491Z,30.10
2018-05-27T12:22:49.037Z,30.00
2018-05-27T12:25:16.543Z,29.70
2018-05-27T12:27:44.028Z,29.60
2018-05-27T12:30:11.558Z,29.70
2018-05-27T12:32:40.626Z,29.30
2018-05-27T12:35:08.154Z,29.30
2018-05-27T12:37:35.687Z,29.40
2018-05-27T12:40:03.919Z,28.40
2018-05-27T12:42:31.403Z,28.40
2018-05-27T12:44:58.891Z,28.40
2018-05-27T12:47:26.377Z,28.40
2018-05-27T12:49:53.940Z,28.30
2018-05-27T12:52:22.370Z,28.00
2018-05-27T12:54:50.022Z,27.90
2018-05-27T12:57:17.522Z,27.50
2018-05-27T12:59:45.010Z,27.40
2018-05-27T13:02:12.508Z,26.90
2018-05-27T13:04:40.013Z,26.80
2018-05-27T13:07:07.498Z,26.50
2018-05-27T13:09:35.062Z,26.30
2018-05-27T13:12:02.539Z,26.20
2018-05-27T13:14:30.044Z,25.90
2018-05-27T13:16:58.062Z,25.80
2018-05-27T13:19:25.568Z,25.70
2018-05-27T13:21:53.031Z,25.60
2018-05-27T13:24:20.557Z,25.50
2018-05-27T13:26:49.980Z,25.30
2018-05-27T13:29:17.481Z,25.30
2018-05-27T13:31:44.975Z,25.10
2018-05-27T13:34:12.584Z,25.00
2018-05-27T13:36:40.111Z,25.00
2018-05-27T13:39:08.360Z,24.70
2018-05-27T13:41:35.859Z,24.70
2018-05-27T13:44:03.359Z,24.80
2018-05-27T13:46:31.667Z,24.50
2018-05-27T13:48:59.144Z,24.50
2018-05-27T13:51:27.419Z,24.20
2018-05-27T13:53:55.679Z,24.00
2018-05-27T13:56:23.975Z,23.80
2018-05-27T13:58:52.754Z,23.80
2018-05-27T14:01:21.026Z,23.90
2018-05-27T14:03:48.556Z,23.90
2018-05-27T14:06:16.107Z,23.80
2018-05-27T14:08:43.607Z,23.70
2018-05-27T14:11:11.887Z,23.50
2018-05-27T14:13:40.128Z,23.40
2018-05-27T14:16:07.625Z,23.40
2018-05-27T14:18:36.271Z,23.50
2018-05-27T14:21:03.751Z,23.50
2018-05-27T14:23:31.260Z,23.70
2018-05-27T14:25:58.767Z,23.80
2018-05-27T14:28:26.243Z,23.70
2018-05-27T14:30:54.491Z,23.70
2018-05-27T14:33:21.984Z,23.70
2018-05-27T14:35:50.247Z,23.70
2018-05-27T14:38:17.847Z,23.70
2018-05-27T14:40:45.338Z,23.90
2018-05-27T14:43:12.875Z,24.00
2018-05-27T14:45:40.399Z,24.30
2018-05-27T14:48:08.713Z,24.50
2018-05-27T14:50:36.217Z,24.50
2018-05-27T14:53:03.730Z,24.60
2018-05-27T14:55:31.268Z,24.80
2018-05-27T14:57:58.768Z,24.80
2018-05-27T15:00:26.258Z,25.00
2018-05-27T15:02:53.739Z,25.10
2018-05-27T15:05:21.261Z,25.30
2018-05-27T15:07:48.820Z,25.50
2018-05-27T15:10:16.322Z,25.50
2018-05-27T15:12:44.620Z,26.20
2018-05-27T15:15:12.125Z,26.10
2018-05-27T15:17:39.644Z,26.40
2018-05-27T15:20:07.115Z,26.70
2018-05-27T15:22:34.957Z,26.80
2018-05-27T15:25:02.474Z,26.60
2018-05-27T15:27:29.943Z,26.80
2018-05-27T15:29:58.230Z,27.10
2018-05-27T15:32:26.678Z,27.20
2018-05-27T15:34:54.164Z,27.20
2018-05-27T15:37:22.459Z,27.40
2018-05-27T15:39:50.899Z,27.30
2018-05-27T15:42:18.402Z,27.50
2018-05-27T15:44:45.881Z,27.60
2018-05-27T15:47:13.375Z,27.80
2018-05-27T15:49:40.878Z,28.00
2018-05-27T15:52:08.364Z,28.10
2018-05-27T15:54:37.679Z,28.00
2018-05-27T15:57:05.210Z,28.00
2018-05-27T15:59:32.696Z,28.10
2018-05-27T16:02:00.208Z,28.10
2018-05-27T16:04:28.446Z,27.50
2018-05-27T16:06:55.939Z,27.50
2018-05-27T16:09:24.211Z,27.10
2018-05-27T16:11:52.514Z,26.80
2018-05-27T16:14:19.984Z,26.80
2018-05-27T16:16:47.490Z,26.50
2018-05-27T16:19:14.980Z,26.30
2018-05-27T16:21:42.502Z,26.00
2018-05-27T16:24:10.019Z,26.00
2018-05-27T16:26:37.520Z,25.80
2018-05-27T16:29:05.011Z,25.50
2018-05-27T16:31:33.255Z,25.40
2018-05-27T16:34:00.787Z,25.40
2018-05-27T16:36:28.262Z,25.30
2018-05-27T16:38:55.760Z,25.30
2018-05-27T16:41:23.998Z,25.00
2018-05-27T16:43:51.550Z,24.90
2018-05-27T16:46:19.057Z,24.90
2018-05-27T16:48:47.597Z,24.70
2018-05-27T16:51:15.067Z,24.70
2018-05-27T16:53:42.545Z,24.60
2018-05-27T16:56:10.803Z,24.30
2018-05-27T16:58:38.283Z,24.30
2018-05-27T17:01:06.912Z,24.20
2018-05-27T17:03:34.389Z,24.20
2018-05-27T17:06:01.880Z,24.00
2018-05-27T17:08:29.403Z,24.00
2018-05-27T17:10:56.901Z,24.00
2018-05-27T17:13:25.156Z,23.90
2018-05-27T17:15:52.781Z,23.90
2018-05-27T17:18:20.263Z,23.80
2018-05-27T17:20:47.764Z,23.80
2018-05-27T17:23:16.026Z,23.70
2018-05-27T17:25:43.542Z,23.70
2018-05-27T17:28:11.082Z,23.70
2018-05-27T17:30:38.557Z,23.70
2018-05-27T17:33:06.095Z,23.70
2018-05-27T17:35:33.568Z,23.70
2018-05-27T17:38:01.082Z,23.70
2018-05-27T17:40:28.615Z,23.60
2018-05-27T17:42:56.103Z,23.70
2018-05-27T17:45:24.415Z,23.70
2018-05-27T17:47:51.899Z,23.70
2018-05-27T17:50:19.407Z,23.70
2018-05-27T17:52:47.673Z,23.60
2018-05-27T17:55:15.169Z,23.60
2018-05-27T17:57:43.782Z,23.50
2018-05-27T18:00:11.256Z,23.40
2018-05-27T18:02:38.824Z,23.30
2018-05-27T18:05:06.319Z,23.30
2018-05-27T18:07:34.620Z,23.10
2018-05-27T18:10:02.894Z,23.10
2018-05-27T18:12:30.388Z,23.00
2018-05-27T18:14:57.895Z,23.10
2018-05-27T18:17:25.475Z,23.00
2018-05-27T18:19:52.996Z,22.90
2018-05-27T18:22:21.312Z,22.90
2018-05-27T18:24:48.815Z,22.80
2018-05-27T18:27:16.313Z,22.80
2018-05-27T18:29:43.805Z,22.70
2018-05-27T18:32:11.284Z,22.70
2018-05-27T18:34:38.797Z,22.60
2018-05-27T18:37:06.292Z,22.50
2018-05-27T18:39:33.801Z,22.40
2018-05-27T18:42:02.063Z,22.30
2018-05-27T18:44:30.336Z,22.10
2018-05-27T18:46:57.977Z,22.10
2018-05-27T18:49:25.493Z,22.00
2018-05-27T18:51:52.991Z,22.00
2018-05-27T18:54:20.477Z,21.90
2018-05-27T18:56:47.984Z,21.80
2018-05-27T18:59:15.454Z,21.80
2018-05-27T19:01:42.972Z,21.70
2018-05-27T19:04:11.207Z,21.50
2018-05-27T19:06:38.721Z,21.50
2018-05-27T19:09:06.207Z,21.50
2018-05-27T19:11:33.813Z,21.40
2018-05-27T19:14:01.282Z,21.30
2018-05-27T19:16:29.548Z,21.20
2018-05-27T19:18:57.815Z,21.10
2018-05-27T19:21:25.436Z,21.10
2018-05-27T19:23:52.919Z,21.00
2018-05-27T19:26:20.476Z,20.90
2018-05-27T19:28:48.587Z,20.80
2018-05-27T19:31:16.847Z,20.60
2018-05-27T19:33:44.391Z,20.50
2018-05-27T19:36:12.002Z,20.50
2018-05-27T19:38:39.520Z,20.40
2018-05-27T19:41:08.512Z,20.30
2018-05-27T19:43:36.063Z,20.30
2018-05-27T19:46:03.687Z,20.30
2018-05-27T19:48:31.195Z,20.20
2018-05-27T19:51:00.199Z,20.20
2018-05-27T19:53:27.696Z,20.20
2018-05-27T19:55:55.193Z,20.20
2018-05-27T19:58:22.720Z,20.20
2018-05-27T20:00:50.318Z,20.20
2018-05-27T20:03:17.805Z,20.20
2018-05-27T20:05:46.155Z,20.30
2018-05-27T20:08:13.712Z,20.30
2018-05-27T20:10:41.227Z,20.30
2018-05-27T20:13:08.708Z,20.40
2018-05-27T20:15:36.213Z,20.50
2018-05-27T20:18:03.711Z,20.50
2018-05-27T20:20:31.246Z,20.50
2018-05-27T20:22:58.731Z,20.50
2018-05-27T20:25:26.244Z,20.60
2018-05-27T20:27:53.739Z,20.50
2018-05-27T20:30:21.243Z,20.60
2018-05-27T20:32:48.769Z,20.50
2018-05-27T20:35:16.261Z,20.50
2018-05-27T20:37:43.774Z,20.50
2018-05-27T20:40:11.243Z,20.40
2018-05-27T20:42:38.749Z,20.50
2018-05-27T20:45:06.279Z,20.50
2018-05-27T20:47:33.838Z,20.50
2018-05-27T20:50:01.392Z,20.40
2018-05-27T20:52:28.990Z,20.40
2018-05-27T20:54:56.492Z,20.30
2018-05-27T20:57:23.983Z,20.30
2018-05-27T20:59:51.455Z,20.40
2018-05-27T21:02:18.962Z,20.50
2018-05-27T21:04:47.242Z,20.50
2018-05-27T21:07:14.763Z,20.50
2018-05-27T21:09:42.254Z,20.50
2018-05-27T21:12:10.493Z,20.50
2018-05-27T21:14:38.844Z,20.40
2018-05-27T21:17:06.359Z,20.40
2018-05-27T21:19:34.620Z,20.20
2018-05-27T21:22:02.870Z,20.30
2018-05-27T21:24:30.519Z,20.30
2018-05-27T21:26:58.154Z,20.20
2018-05-27T21:29:26.477Z,20.10
2018-05-27T21:31:53.963Z,20.10
2018-05-27T21:34:21.439Z,20.10
2018-05-27T21:36:49.699Z,20.00
2018-05-27T21:39:17.175Z,20.00
2018-05-27T21:41:45.430Z,20.00
2018-05-27T21:44:12.928Z,20.00
2018-05-27T21:46:40.426Z,20.00
2018-05-27T21:49:07.896Z,20.00
2018-05-27T21:51:35.423Z,20.00
2018-05-27T21:54:02.898Z,19.90
2018-05-27T21:56:30.415Z,19.90
2018-05-27T21:58:57.890Z,19.90
2018-05-27T22:01:25.362Z,19.80
2018-05-27T22:03:52.863Z,19.80
2018-05-27T22:06:21.112Z,19.60
2018-05-27T22:08:48.608Z,19.60
2018-05-27T22:11:16.862Z,19.40
2018-05-27T22:13:44.348Z,19.40
2018-05-27T22:16:12.584Z,19.20
2018-05-27T22:18:40.076Z,19.20
2018-05-27T22:21:08.355Z,19.20
2018-05-27T22:23:35.851Z,19.20
2018-05-27T22:26:03.324Z,19.10
2018-05-27T22:28:30.828Z,19.00
2018-05-27T22:30:59.065Z,18.90
2018-05-27T22:33:26.576Z,18.80
2018-05-27T22:35:54.844Z,18.70
2018-05-27T22:38:23.099Z,18.60
2018-05-27T22:40:50.609Z,18.60
2018-05-27T22:45:52.774Z,18.40
2018-05-27T22:48:21.065Z,18.30
2018-05-27T22:50:48.537Z,18.30
2018-05-27T22:53:16.026Z,18.30
2018-05-27T22:55:43.543Z,18.30
2018-05-27T22:58:11.018Z,18.20
2018-05-27T23:00:38.514Z,18.10
2018-05-27T23:03:06.000Z,18.00
2018-05-27T23:05:34.263Z,17.90
2018-05-27T23:08:01.759Z,17.90
2018-05-27T23:10:29.277Z,18.00
2018-05-27T23:12:56.783Z,18.00
2018-05-27T23:15:24.285Z,18.00
2018-05-27T23:17:51.755Z,18.00
2018-05-27T23:20:19.243Z,17.90
2018-05-27T23:22:46.734Z,17.90
2018-05-27T23:25:14.218Z,17.80
2018-05-27T23:27:41.720Z,17.80
2018-05-27T23:30:09.207Z,17.70
2018-05-27T23:32:36.699Z,17.70
2018-05-27T23:35:04.212Z,17.60
2018-05-27T23:37:32.940Z,17.60
2018-05-27T23:40:00.431Z,17.60
2018-05-27T23:42:28.689Z,17.50
2018-05-27T23:44:56.167Z,17.50
2018-05-27T23:47:24.451Z,17.40
2018-05-27T23:49:51.933Z,17.40
2018-05-27T23:52:19.424Z,17.40
2018-05-27T23:54:46.931Z,17.40
2018-05-27T23:57:14.415Z,17.40
2018-05-27T23:59:41.911Z,17.30
